sensor_id;sensor_type;location;lat;lon;timestamp;temperature;humidity
3788;DHT22;1909;53.046;8.276;2022-11-14T00:01:05;7.60;99.90
3788;DHT22;1909;53.046;8.276;2022-11-14T00:03:33;7.70;99.90
3788;DHT22;1909;53.046;8.276;2022-11-14T00:06:03;7.60;99.90
3788;DHT22;1909;53.046;8.276;2022-11-14T00:08:32;7.60;99.90
3788;DHT22;1909;53.046;8.276;2022-11-14T00:10:58;7.80;99.90
3788;DHT22;1909;53.046;8.276;2022-11-14T00:13:25;7.60;99.90
3788;DHT22;1909;53.046;8.276;2022-11-14T00:15:52;7.60;99.90
3788;DHT22;1909;53.046;8.276;2022-11-14T00:18:19;7.60;99.90
3788;DHT22;1909;53.046;8.276;2022-11-14T00:20:46;7.60;99.90
3788;DHT22;1909;53.046;8.276;2022-11-14T00:23:13;7.60;99.90
3788;DHT22;1909;53.046;8.276;2022-11-14T00:25:42;7.60;99.90
3788;DHT22;1909;53.046;8.276;2022-11-14T00:28:09;7.60;99.90
3788;DHT22;1909;53.046;8.276;2022-11-14T00:30:36;7.60;99.90
3788;DHT22;1909;53.046;8.276;2022-11-14T00:33:03;7.60;99.90
3788;DHT22;1909;53.046;8.276;2022-11-14T00:35:29;7.60;99.90
3788;DHT22;1909;53.046;8.276;2022-11-14T00:37:56;7.60;99.90
3788;DHT22;1909;53.046;8.276;2022-11-14T00:40:23;7.60;99.90
3788;DHT22;1909;53.046;8.276;2022-11-14T00:42:51;7.60;99.90
3788;DHT22;1909;53.046;8.276;2022-11-14T00:45:17;7.60;99.90
3788;DHT22;1909;53.046;8.276;2022-11-14T00:47:44;7.60;99.90
3788;DHT22;1909;53.046;8.276;2022-11-14T00:50:11;7.50;99.90
3788;DHT22;1909;53.046;8.276;2022-11-14T00:52:37;7.50;99.90
3788;DHT22;1909;53.046;8.276;2022-11-14T00:55:06;7.50;99.90
3788;DHT22;1909;53.046;8.276;2022-11-14T00:57:33;7.50;99.90
3788;DHT22;1909;53.046;8.276;2022-11-14T01:00:01;7.50;99.90
3788;DHT22;1909;53.046;8.276;2022-11-14T01:02:29;7.50;99.90
3788;DHT22;1909;53.046;8.276;2022-11-14T01:04:55;7.50;99.90
3788;DHT22;1909;53.046;8.276;2022-11-14T01:07:22;7.50;99.90
3788;DHT22;1909;53.046;8.276;2022-11-14T01:09:49;7.40;99.90
3788;DHT22;1909;53.046;8.276;2022-11-14T01:12:15;7.40;99.90
3788;DHT22;1909;53.046;8.276;2022-11-14T01:14:42;7.50;99.90
3788;DHT22;1909;53.046;8.276;2022-11-14T01:17:10;7.50;99.90
3788;DHT22;1909;53.046;8.276;2022-11-14T01:19:37;7.40;99.90
3788;DHT22;1909;53.046;8.276;2022-11-14T01:22:04;7.50;99.90
3788;DHT22;1909;53.046;8.276;2022-11-14T01:24:31;7.40;99.90
3788;DHT22;1909;53.046;8.276;2022-11-14T01:26:58;7.40;99.90
3788;DHT22;1909;53.046;8.276;2022-11-14T01:29:25;7.40;99.90
3788;DHT22;1909;53.046;8.276;2022-11-14T01:31:52;7.40;99.90
3788;DHT22;1909;53.046;8.276;2022-11-14T01:34:20;7.40;99.90
3788;DHT22;1909;53.046;8.276;2022-11-14T01:36:47;7.30;99.90
3788;DHT22;1909;53.046;8.276;2022-11-14T01:39:14;7.30;99.90
3788;DHT22;1909;53.046;8.276;2022-11-14T01:41:40;7.30;99.90
3788;DHT22;1909;53.046;8.276;2022-11-14T01:44:11;7.30;99.90
3788;DHT22;1909;53.046;8.276;2022-11-14T01:46:40;7.30;99.90
3788;DHT22;1909;53.046;8.276;2022-11-14T01:49:14;7.30;99.90
3788;DHT22;1909;53.046;8.276;2022-11-14T01:51:46;7.30;99.90
3788;DHT22;1909;53.046;8.276;2022-11-14T01:54:17;7.30;99.90
3788;DHT22;1909;53.046;8.276;2022-11-14T01:56:48;7.30;99.90
3788;DHT22;1909;53.046;8.276;2022-11-14T01:59:21;7.30;99.90
3788;DHT22;1909;53.046;8.276;2022-11-14T02:01:50;7.20;99.90
3788;DHT22;1909;53.046;8.276;2022-11-14T02:04:20;7.20;99.90
3788;DHT22;1909;53.046;8.276;2022-11-14T02:06:52;7.10;99.90
3788;DHT22;1909;53.046;8.276;2022-11-14T02:09:20;7.20;99.90
3788;DHT22;1909;53.046;8.276;2022-11-14T02:11:48;7.20;99.90
3788;DHT22;1909;53.046;8.276;2022-11-14T02:14:15;7.20;99.90
3788;DHT22;1909;53.046;8.276;2022-11-14T02:16:42;7.20;99.90
3788;DHT22;1909;53.046;8.276;2022-11-14T02:19:09;7.20;99.90
3788;DHT22;1909;53.046;8.276;2022-11-14T02:21:37;7.30;99.90
3788;DHT22;1909;53.046;8.276;2022-11-14T02:24:08;7.30;99.90
3788;DHT22;1909;53.046;8.276;2022-11-14T02:26:35;7.20;99.90
3788;DHT22;1909;53.046;8.276;2022-11-14T02:29:02;7.30;99.90
3788;DHT22;1909;53.046;8.276;2022-11-14T02:31:29;7.20;99.90
3788;DHT22;1909;53.046;8.276;2022-11-14T02:33:56;7.30;99.90
3788;DHT22;1909;53.046;8.276;2022-11-14T02:36:23;7.30;99.90
3788;DHT22;1909;53.046;8.276;2022-11-14T02:38:51;7.30;99.90
3788;DHT22;1909;53.046;8.276;2022-11-14T02:41:18;7.20;99.90
3788;DHT22;1909;53.046;8.276;2022-11-14T02:43:44;7.10;99.90
3788;DHT22;1909;53.046;8.276;2022-11-14T02:46:11;7.20;99.90
3788;DHT22;1909;53.046;8.276;2022-11-14T02:48:38;7.10;99.90
3788;DHT22;1909;53.046;8.276;2022-11-14T02:51:05;7.20;99.90
3788;DHT22;1909;53.046;8.276;2022-11-14T02:53:31;7.00;99.90
3788;DHT22;1909;53.046;8.276;2022-11-14T02:55:59;7.10;99.90
3788;DHT22;1909;53.046;8.276;2022-11-14T02:58:26;7.10;99.90
3788;DHT22;1909;53.046;8.276;2022-11-14T03:00:53;7.00;99.90
3788;DHT22;1909;53.046;8.276;2022-11-14T03:03:19;7.10;99.90
3788;DHT22;1909;53.046;8.276;2022-11-14T03:05:46;7.00;99.90
3788;DHT22;1909;53.046;8.276;2022-11-14T03:08:13;7.00;99.90
3788;DHT22;1909;53.046;8.276;2022-11-14T03:10:40;7.00;99.90
3788;DHT22;1909;53.046;8.276;2022-11-14T03:13:08;7.00;99.90
3788;DHT22;1909;53.046;8.276;2022-11-14T03:15:36;6.90;99.90
3788;DHT22;1909;53.046;8.276;2022-11-14T03:18:03;6.80;99.90
3788;DHT22;1909;53.046;8.276;2022-11-14T03:20:29;6.90;99.90
3788;DHT22;1909;53.046;8.276;2022-11-14T03:22:56;6.90;99.90
3788;DHT22;1909;53.046;8.276;2022-11-14T03:25:23;6.80;99.90
3788;DHT22;1909;53.046;8.276;2022-11-14T03:27:49;7.10;99.90
3788;DHT22;1909;53.046;8.276;2022-11-14T03:30:18;7.10;99.90
3788;DHT22;1909;53.046;8.276;2022-11-14T03:32:44;7.10;99.90
3788;DHT22;1909;53.046;8.276;2022-11-14T03:35:11;7.10;99.90
3788;DHT22;1909;53.046;8.276;2022-11-14T03:37:38;7.00;99.90
3788;DHT22;1909;53.046;8.276;2022-11-14T03:40:06;6.90;99.90
3788;DHT22;1909;53.046;8.276;2022-11-14T03:42:33;6.90;99.90
3788;DHT22;1909;53.046;8.276;2022-11-14T03:45:00;7.00;99.90
3788;DHT22;1909;53.046;8.276;2022-11-14T03:47:28;7.00;99.90
3788;DHT22;1909;53.046;8.276;2022-11-14T03:49:55;7.00;99.90
3788;DHT22;1909;53.046;8.276;2022-11-14T03:52:22;6.90;99.90
3788;DHT22;1909;53.046;8.276;2022-11-14T03:54:50;7.00;99.90
3788;DHT22;1909;53.046;8.276;2022-11-14T03:57:17;7.00;99.90
3788;DHT22;1909;53.046;8.276;2022-11-14T03:59:43;7.00;99.90
3788;DHT22;1909;53.046;8.276;2022-11-14T04:02:10;6.90;99.90
3788;DHT22;1909;53.046;8.276;2022-11-14T04:04:38;7.00;99.90
3788;DHT22;1909;53.046;8.276;2022-11-14T04:07:05;7.00;99.90
3788;DHT22;1909;53.046;8.276;2022-11-14T04:09:32;7.00;99.90
3788;DHT22;1909;53.046;8.276;2022-11-14T04:11:58;7.10;99.90
3788;DHT22;1909;53.046;8.276;2022-11-14T04:14:25;7.00;99.90
3788;DHT22;1909;53.046;8.276;2022-11-14T04:16:52;7.00;99.90
3788;DHT22;1909;53.046;8.276;2022-11-14T04:19:18;7.00;99.90
3788;DHT22;1909;53.046;8.276;2022-11-14T04:21:46;6.90;99.90
3788;DHT22;1909;53.046;8.276;2022-11-14T04:24:13;6.90;99.90
3788;DHT22;1909;53.046;8.276;2022-11-14T04:26:40;7.00;99.90
3788;DHT22;1909;53.046;8.276;2022-11-14T04:29:06;7.00;99.90
3788;DHT22;1909;53.046;8.276;2022-11-14T04:31:33;6.90;99.90
3788;DHT22;1909;53.046;8.276;2022-11-14T04:34:00;6.90;99.90
3788;DHT22;1909;53.046;8.276;2022-11-14T04:36:27;6.90;99.90
3788;DHT22;1909;53.046;8.276;2022-11-14T04:38:55;7.00;99.90
3788;DHT22;1909;53.046;8.276;2022-11-14T04:41:21;7.60;99.90
3788;DHT22;1909;53.046;8.276;2022-11-14T04:43:48;7.00;99.90
3788;DHT22;1909;53.046;8.276;2022-11-14T04:46:15;6.90;99.90
3788;DHT22;1909;53.046;8.276;2022-11-14T04:48:42;6.90;99.90
3788;DHT22;1909;53.046;8.276;2022-11-14T04:51:08;7.00;99.90
3788;DHT22;1909;53.046;8.276;2022-11-14T04:53:35;6.80;99.90
3788;DHT22;1909;53.046;8.276;2022-11-14T04:56:03;6.80;99.90
3788;DHT22;1909;53.046;8.276;2022-11-14T04:58:30;6.90;99.90
3788;DHT22;1909;53.046;8.276;2022-11-14T05:00:57;6.70;99.90
3788;DHT22;1909;53.046;8.276;2022-11-14T05:03:24;6.80;99.90
3788;DHT22;1909;53.046;8.276;2022-11-14T05:05:51;6.90;99.90
3788;DHT22;1909;53.046;8.276;2022-11-14T05:08:17;8.10;99.90
3788;DHT22;1909;53.046;8.276;2022-11-14T05:10:44;6.90;99.90
3788;DHT22;1909;53.046;8.276;2022-11-14T05:13:12;6.80;99.90
3788;DHT22;1909;53.046;8.276;2022-11-14T05:15:39;6.90;99.90
3788;DHT22;1909;53.046;8.276;2022-11-14T05:18:06;6.80;99.90
3788;DHT22;1909;53.046;8.276;2022-11-14T05:20:32;6.90;99.90
3788;DHT22;1909;53.046;8.276;2022-11-14T05:22:59;6.90;99.90
3788;DHT22;1909;53.046;8.276;2022-11-14T05:25:26;6.80;99.90
3788;DHT22;1909;53.046;8.276;2022-11-14T05:27:53;6.90;99.90
3788;DHT22;1909;53.046;8.276;2022-11-14T05:30:21;6.80;99.90
3788;DHT22;1909;53.046;8.276;2022-11-14T05:32:47;6.70;99.90
3788;DHT22;1909;53.046;8.276;2022-11-14T05:35:16;6.70;99.90
3788;DHT22;1909;53.046;8.276;2022-11-14T05:37:43;6.60;99.90
3788;DHT22;1909;53.046;8.276;2022-11-14T05:40:10;6.60;99.90
3788;DHT22;1909;53.046;8.276;2022-11-14T05:42:37;6.70;99.90
3788;DHT22;1909;53.046;8.276;2022-11-14T05:45:04;6.60;99.90
3788;DHT22;1909;53.046;8.276;2022-11-14T05:47:33;6.60;99.90
3788;DHT22;1909;53.046;8.276;2022-11-14T05:49:59;6.70;99.90
3788;DHT22;1909;53.046;8.276;2022-11-14T05:52:26;6.60;99.90
3788;DHT22;1909;53.046;8.276;2022-11-14T05:54:53;6.60;99.90
3788;DHT22;1909;53.046;8.276;2022-11-14T05:57:19;6.70;99.90
3788;DHT22;1909;53.046;8.276;2022-11-14T05:59:46;6.60;99.90
3788;DHT22;1909;53.046;8.276;2022-11-14T06:02:13;6.70;99.90
3788;DHT22;1909;53.046;8.276;2022-11-14T06:04:41;6.70;99.90
3788;DHT22;1909;53.046;8.276;2022-11-14T06:07:08;6.50;99.90
3788;DHT22;1909;53.046;8.276;2022-11-14T06:09:35;6.60;99.90
3788;DHT22;1909;53.046;8.276;2022-11-14T06:12:01;6.60;99.90
3788;DHT22;1909;53.046;8.276;2022-11-14T06:14:30;6.60;99.90
3788;DHT22;1909;53.046;8.276;2022-11-14T06:16:57;6.70;99.90
3788;DHT22;1909;53.046;8.276;2022-11-14T06:19:24;6.70;99.90
3788;DHT22;1909;53.046;8.276;2022-11-14T06:21:52;8.10;99.90
3788;DHT22;1909;53.046;8.276;2022-11-14T06:24:18;6.70;99.90
3788;DHT22;1909;53.046;8.276;2022-11-14T06:26:45;6.70;99.90
3788;DHT22;1909;53.046;8.276;2022-11-14T06:29:12;6.80;99.90
3788;DHT22;1909;53.046;8.276;2022-11-14T06:31:38;6.70;99.90
3788;DHT22;1909;53.046;8.276;2022-11-14T06:34:05;6.70;99.90
3788;DHT22;1909;53.046;8.276;2022-11-14T06:36:32;6.70;99.90
3788;DHT22;1909;53.046;8.276;2022-11-14T06:39:00;6.70;99.90
3788;DHT22;1909;53.046;8.276;2022-11-14T06:41:27;6.70;99.90
3788;DHT22;1909;53.046;8.276;2022-11-14T06:43:53;6.70;99.90
3788;DHT22;1909;53.046;8.276;2022-11-14T06:46:21;6.60;99.90
3788;DHT22;1909;53.046;8.276;2022-11-14T06:48:48;6.60;99.90
3788;DHT22;1909;53.046;8.276;2022-11-14T06:51:16;6.50;99.90
3788;DHT22;1909;53.046;8.276;2022-11-14T06:53:43;6.60;99.90
3788;DHT22;1909;53.046;8.276;2022-11-14T06:56:13;6.50;99.90
3788;DHT22;1909;53.046;8.276;2022-11-14T06:58:41;6.50;99.90
3788;DHT22;1909;53.046;8.276;2022-11-14T07:01:11;6.50;99.90
3788;DHT22;1909;53.046;8.276;2022-11-14T07:03:37;6.60;99.90
3788;DHT22;1909;53.046;8.276;2022-11-14T07:06:05;6.40;99.90
3788;DHT22;1909;53.046;8.276;2022-11-14T07:08:32;6.50;99.90
3788;DHT22;1909;53.046;8.276;2022-11-14T07:11:03;6.50;99.90
3788;DHT22;1909;53.046;8.276;2022-11-14T07:13:32;6.40;99.90
3788;DHT22;1909;53.046;8.276;2022-11-14T07:15:59;6.40;99.90
3788;DHT22;1909;53.046;8.276;2022-11-14T07:18:28;6.30;99.90
3788;DHT22;1909;53.046;8.276;2022-11-14T07:20:59;6.40;99.90
3788;DHT22;1909;53.046;8.276;2022-11-14T07:23:26;6.40;99.90
3788;DHT22;1909;53.046;8.276;2022-11-14T07:25:53;6.40;99.90
3788;DHT22;1909;53.046;8.276;2022-11-14T07:28:20;6.60;99.90
3788;DHT22;1909;53.046;8.276;2022-11-14T07:30:48;6.40;99.90
3788;DHT22;1909;53.046;8.276;2022-11-14T07:33:15;6.40;99.90
3788;DHT22;1909;53.046;8.276;2022-11-14T07:35:41;6.40;99.90
3788;DHT22;1909;53.046;8.276;2022-11-14T07:38:08;6.40;99.90
3788;DHT22;1909;53.046;8.276;2022-11-14T07:40:35;6.40;99.90
3788;DHT22;1909;53.046;8.276;2022-11-14T07:43:02;6.70;99.90
3788;DHT22;1909;53.046;8.276;2022-11-14T07:45:29;6.50;99.90
3788;DHT22;1909;53.046;8.276;2022-11-14T07:47:58;6.50;99.90
3788;DHT22;1909;53.046;8.276;2022-11-14T07:50:25;6.50;99.90
3788;DHT22;1909;53.046;8.276;2022-11-14T07:52:54;6.50;99.90
3788;DHT22;1909;53.046;8.276;2022-11-14T07:55:22;6.50;99.90
3788;DHT22;1909;53.046;8.276;2022-11-14T07:57:51;6.50;99.90
3788;DHT22;1909;53.046;8.276;2022-11-14T08:00:19;6.50;99.90
3788;DHT22;1909;53.046;8.276;2022-11-14T08:02:46;6.50;99.90
3788;DHT22;1909;53.046;8.276;2022-11-14T08:05:14;6.50;99.90
3788;DHT22;1909;53.046;8.276;2022-11-14T08:07:41;6.50;99.90
3788;DHT22;1909;53.046;8.276;2022-11-14T08:10:08;6.50;99.90
3788;DHT22;1909;53.046;8.276;2022-11-14T08:12:36;6.50;99.90
3788;DHT22;1909;53.046;8.276;2022-11-14T08:15:04;6.50;99.90
3788;DHT22;1909;53.046;8.276;2022-11-14T08:17:31;6.60;99.90
3788;DHT22;1909;53.046;8.276;2022-11-14T08:19:58;6.60;99.90
3788;DHT22;1909;53.046;8.276;2022-11-14T08:22:26;6.60;99.90
3788;DHT22;1909;53.046;8.276;2022-11-14T08:24:53;6.50;99.90
3788;DHT22;1909;53.046;8.276;2022-11-14T08:27:20;6.50;99.90
3788;DHT22;1909;53.046;8.276;2022-11-14T08:29:46;6.60;99.90
3788;DHT22;1909;53.046;8.276;2022-11-14T08:32:15;6.50;99.90
3788;DHT22;1909;53.046;8.276;2022-11-14T08:34:42;6.50;99.90
3788;DHT22;1909;53.046;8.276;2022-11-14T08:37:09;6.50;99.90
3788;DHT22;1909;53.046;8.276;2022-11-14T08:39:37;6.50;99.90
3788;DHT22;1909;53.046;8.276;2022-11-14T08:42:03;6.60;99.90
3788;DHT22;1909;53.046;8.276;2022-11-14T08:44:30;6.60;99.90
3788;DHT22;1909;53.046;8.276;2022-11-14T08:46:57;6.60;99.90
3788;DHT22;1909;53.046;8.276;2022-11-14T08:49:25;6.60;99.90
3788;DHT22;1909;53.046;8.276;2022-11-14T08:51:52;6.60;99.90
3788;DHT22;1909;53.046;8.276;2022-11-14T08:54:19;6.60;99.90
3788;DHT22;1909;53.046;8.276;2022-11-14T08:56:47;6.60;99.90
3788;DHT22;1909;53.046;8.276;2022-11-14T08:59:14;6.60;99.90
3788;DHT22;1909;53.046;8.276;2022-11-14T09:01:40;6.60;99.90
3788;DHT22;1909;53.046;8.276;2022-11-14T09:04:07;6.60;99.90
3788;DHT22;1909;53.046;8.276;2022-11-14T09:06:34;6.60;99.90
3788;DHT22;1909;53.046;8.276;2022-11-14T09:09:01;6.60;99.90
3788;DHT22;1909;53.046;8.276;2022-11-14T09:11:27;6.60;99.90
3788;DHT22;1909;53.046;8.276;2022-11-14T09:13:55;6.60;99.90
3788;DHT22;1909;53.046;8.276;2022-11-14T09:16:22;6.70;99.90
3788;DHT22;1909;53.046;8.276;2022-11-14T09:18:49;6.60;99.90
3788;DHT22;1909;53.046;8.276;2022-11-14T09:21:16;6.70;99.90
3788;DHT22;1909;53.046;8.276;2022-11-14T09:23:45;6.70;99.90
3788;DHT22;1909;53.046;8.276;2022-11-14T09:26:12;6.70;99.90
3788;DHT22;1909;53.046;8.276;2022-11-14T09:28:39;6.70;99.90
3788;DHT22;1909;53.046;8.276;2022-11-14T09:31:09;6.70;99.90
3788;DHT22;1909;53.046;8.276;2022-11-14T09:33:36;6.70;99.90
3788;DHT22;1909;53.046;8.276;2022-11-14T09:36:05;6.70;99.90
3788;DHT22;1909;53.046;8.276;2022-11-14T09:38:32;6.70;99.90
3788;DHT22;1909;53.046;8.276;2022-11-14T09:41:05;6.70;99.90
3788;DHT22;1909;53.046;8.276;2022-11-14T09:43:56;6.70;99.90
3788;DHT22;1909;53.046;8.276;2022-11-14T09:46:33;6.80;99.90
3788;DHT22;1909;53.046;8.276;2022-11-14T09:49:03;6.80;99.90
3788;DHT22;1909;53.046;8.276;2022-11-14T09:51:38;6.70;99.90
3788;DHT22;1909;53.046;8.276;2022-11-14T09:54:17;6.70;99.90
3788;DHT22;1909;53.046;8.276;2022-11-14T09:56:45;6.80;99.90
3788;DHT22;1909;53.046;8.276;2022-11-14T09:59:12;6.80;99.90
3788;DHT22;1909;53.046;8.276;2022-11-14T10:01:47;6.80;99.90
3788;DHT22;1909;53.046;8.276;2022-11-14T10:04:19;6.80;99.90
3788;DHT22;1909;53.046;8.276;2022-11-14T10:06:56;6.80;99.90
3788;DHT22;1909;53.046;8.276;2022-11-14T10:09:43;6.80;99.90
3788;DHT22;1909;53.046;8.276;2022-11-14T10:12:19;6.80;99.90
3788;DHT22;1909;53.046;8.276;2022-11-14T10:18:11;6.80;99.90
3788;DHT22;1909;53.046;8.276;2022-11-14T10:20:43;6.90;99.90
3788;DHT22;1909;53.046;8.276;2022-11-14T10:23:32;7.00;99.90
3788;DHT22;1909;53.046;8.276;2022-11-14T10:26:08;7.10;99.90
3788;DHT22;1909;53.046;8.276;2022-11-14T10:28:47;7.20;99.90
3788;DHT22;1909;53.046;8.276;2022-11-14T10:31:22;7.30;99.90
3788;DHT22;1909;53.046;8.276;2022-11-14T10:33:59;7.50;99.90
3788;DHT22;1909;53.046;8.276;2022-11-14T10:36:44;7.50;99.90
3788;DHT22;1909;53.046;8.276;2022-11-14T10:39:16;7.40;99.90
3788;DHT22;1909;53.046;8.276;2022-11-14T10:41:46;7.10;99.90
3788;DHT22;1909;53.046;8.276;2022-11-14T10:44:19;7.10;99.90
3788;DHT22;1909;53.046;8.276;2022-11-14T10:46:51;7.40;99.90
3788;DHT22;1909;53.046;8.276;2022-11-14T10:49:21;7.30;99.90
3788;DHT22;1909;53.046;8.276;2022-11-14T10:51:50;7.50;99.90
3788;DHT22;1909;53.046;8.276;2022-11-14T10:54:21;7.60;99.90
3788;DHT22;1909;53.046;8.276;2022-11-14T10:56:51;7.60;99.90
3788;DHT22;1909;53.046;8.276;2022-11-14T10:59:18;7.90;99.90
3788;DHT22;1909;53.046;8.276;2022-11-14T11:01:52;7.70;99.90
3788;DHT22;1909;53.046;8.276;2022-11-14T11:04:24;7.80;99.90
3788;DHT22;1909;53.046;8.276;2022-11-14T11:06:54;7.50;99.90
3788;DHT22;1909;53.046;8.276;2022-11-14T11:09:22;7.50;99.90
3788;DHT22;1909;53.046;8.276;2022-11-14T11:12:08;7.50;99.90
3788;DHT22;1909;53.046;8.276;2022-11-14T11:14:39;7.40;99.90
3788;DHT22;1909;53.046;8.276;2022-11-14T11:17:07;7.70;99.90
3788;DHT22;1909;53.046;8.276;2022-11-14T11:19:42;7.70;99.90
3788;DHT22;1909;53.046;8.276;2022-11-14T11:22:27;8.00;99.90
3788;DHT22;1909;53.046;8.276;2022-11-14T11:24:54;7.90;99.90
3788;DHT22;1909;53.046;8.276;2022-11-14T11:27:24;7.90;99.90
3788;DHT22;1909;53.046;8.276;2022-11-14T11:30:10;8.00;99.90
3788;DHT22;1909;53.046;8.276;2022-11-14T11:32:42;8.00;99.90
3788;DHT22;1909;53.046;8.276;2022-11-14T11:35:13;7.80;99.90
3788;DHT22;1909;53.046;8.276;2022-11-14T11:37:43;7.90;99.90
3788;DHT22;1909;53.046;8.276;2022-11-14T11:40:16;8.20;99.90
3788;DHT22;1909;53.046;8.276;2022-11-14T11:42:49;8.20;99.90
3788;DHT22;1909;53.046;8.276;2022-11-14T11:45:18;8.10;99.90
3788;DHT22;1909;53.046;8.276;2022-11-14T11:47:50;8.10;99.90
3788;DHT22;1909;53.046;8.276;2022-11-14T11:50:20;8.20;99.90
3788;DHT22;1909;53.046;8.276;2022-11-14T11:52:58;8.10;99.90
3788;DHT22;1909;53.046;8.276;2022-11-14T11:55:29;8.10;99.90
3788;DHT22;1909;53.046;8.276;2022-11-14T11:58:01;8.10;99.90
3788;DHT22;1909;53.046;8.276;2022-11-14T12:00:30;8.00;99.90
3788;DHT22;1909;53.046;8.276;2022-11-14T12:02:58;8.10;99.90
3788;DHT22;1909;53.046;8.276;2022-11-14T12:05:31;8.20;99.90
3788;DHT22;1909;53.046;8.276;2022-11-14T12:08:04;8.10;99.90
3788;DHT22;1909;53.046;8.276;2022-11-14T12:10:37;7.90;99.90
3788;DHT22;1909;53.046;8.276;2022-11-14T12:13:21;7.90;99.90
3788;DHT22;1909;53.046;8.276;2022-11-14T12:16:02;7.90;99.90
3788;DHT22;1909;53.046;8.276;2022-11-14T12:21:59;8.20;99.90
3788;DHT22;1909;53.046;8.276;2022-11-14T12:24:51;8.40;99.90
3788;DHT22;1909;53.046;8.276;2022-11-14T12:27:28;8.40;99.90
3788;DHT22;1909;53.046;8.276;2022-11-14T12:30:11;8.20;99.90
3788;DHT22;1909;53.046;8.276;2022-11-14T12:32:42;8.20;99.90
3788;DHT22;1909;53.046;8.276;2022-11-14T12:35:16;8.10;99.90
3788;DHT22;1909;53.046;8.276;2022-11-14T12:37:46;8.20;99.90
3788;DHT22;1909;53.046;8.276;2022-11-14T12:40:26;8.20;99.90
3788;DHT22;1909;53.046;8.276;2022-11-14T12:42:55;8.00;99.90
3788;DHT22;1909;53.046;8.276;2022-11-14T12:45:57;8.10;99.90
3788;DHT22;1909;53.046;8.276;2022-11-14T12:48:35;8.10;99.90
3788;DHT22;1909;53.046;8.276;2022-11-14T12:51:04;8.10;99.90
3788;DHT22;1909;53.046;8.276;2022-11-14T12:53:42;8.20;99.90
3788;DHT22;1909;53.046;8.276;2022-11-14T12:59:44;8.30;99.90
3788;DHT22;1909;53.046;8.276;2022-11-14T13:02:27;8.30;99.90
3788;DHT22;1909;53.046;8.276;2022-11-14T13:05:21;8.20;99.90
3788;DHT22;1909;53.046;8.276;2022-11-14T13:07:56;8.30;99.90
3788;DHT22;1909;53.046;8.276;2022-11-14T13:10:30;8.30;99.90
3788;DHT22;1909;53.046;8.276;2022-11-14T13:13:04;8.20;99.90
3788;DHT22;1909;53.046;8.276;2022-11-14T13:15:50;8.20;99.90
3788;DHT22;1909;53.046;8.276;2022-11-14T13:18:36;8.30;99.90
3788;DHT22;1909;53.046;8.276;2022-11-14T13:21:32;8.20;99.90
3788;DHT22;1909;53.046;8.276;2022-11-14T13:24:13;8.00;99.90
3788;DHT22;1909;53.046;8.276;2022-11-14T13:26:46;8.00;99.90
3788;DHT22;1909;53.046;8.276;2022-11-14T13:35:51;8.10;99.90
3788;DHT22;1909;53.046;8.276;2022-11-14T13:39:10;8.00;99.90
3788;DHT22;1909;53.046;8.276;2022-11-14T13:42:08;8.00;99.90
3788;DHT22;1909;53.046;8.276;2022-11-14T13:44:58;8.10;99.90
3788;DHT22;1909;53.046;8.276;2022-11-14T13:47:56;8.10;99.90
3788;DHT22;1909;53.046;8.276;2022-11-14T13:50:28;8.10;99.90
3788;DHT22;1909;53.046;8.276;2022-11-14T13:52:56;8.20;99.90
3788;DHT22;1909;53.046;8.276;2022-11-14T13:55:29;9.00;99.90
3788;DHT22;1909;53.046;8.276;2022-11-14T13:58:08;8.10;99.90
3788;DHT22;1909;53.046;8.276;2022-11-14T14:00:51;8.70;99.90
3788;DHT22;1909;53.046;8.276;2022-11-14T14:03:36;8.10;99.90
3788;DHT22;1909;53.046;8.276;2022-11-14T14:06:15;8.10;99.90
3788;DHT22;1909;53.046;8.276;2022-11-14T14:08:56;8.20;99.90
3788;DHT22;1909;53.046;8.276;2022-11-14T14:11:38;8.10;99.90
3788;DHT22;1909;53.046;8.276;2022-11-14T14:14:23;8.10;99.90
3788;DHT22;1909;53.046;8.276;2022-11-14T14:17:00;8.00;99.90
3788;DHT22;1909;53.046;8.276;2022-11-14T14:19:37;8.00;99.90
3788;DHT22;1909;53.046;8.276;2022-11-14T14:22:13;8.00;99.90
3788;DHT22;1909;53.046;8.276;2022-11-14T14:24:50;8.00;99.90
3788;DHT22;1909;53.046;8.276;2022-11-14T14:27:23;8.00;99.90
3788;DHT22;1909;53.046;8.276;2022-11-14T14:30:01;8.00;99.90
3788;DHT22;1909;53.046;8.276;2022-11-14T14:32:28;8.00;99.90
3788;DHT22;1909;53.046;8.276;2022-11-14T14:34:55;8.10;99.90
3788;DHT22;1909;53.046;8.276;2022-11-14T14:37:27;8.10;99.90
3788;DHT22;1909;53.046;8.276;2022-11-14T14:39:55;8.10;99.90
3788;DHT22;1909;53.046;8.276;2022-11-14T14:42:22;8.20;99.90
3788;DHT22;1909;53.046;8.276;2022-11-14T14:44:50;8.10;99.90
3788;DHT22;1909;53.046;8.276;2022-11-14T14:47:33;8.10;99.90
3788;DHT22;1909;53.046;8.276;2022-11-14T14:50:05;8.10;99.90
3788;DHT22;1909;53.046;8.276;2022-11-14T14:52:35;8.00;99.90
3788;DHT22;1909;53.046;8.276;2022-11-14T14:55:03;8.10;99.90
3788;DHT22;1909;53.046;8.276;2022-11-14T14:57:31;8.10;99.90
3788;DHT22;1909;53.046;8.276;2022-11-14T14:59:59;8.00;99.90
3788;DHT22;1909;53.046;8.276;2022-11-14T15:02:28;8.00;99.90
3788;DHT22;1909;53.046;8.276;2022-11-14T15:04:56;8.00;99.90
3788;DHT22;1909;53.046;8.276;2022-11-14T15:07:25;8.00;99.90
3788;DHT22;1909;53.046;8.276;2022-11-14T15:09:55;7.90;99.90
3788;DHT22;1909;53.046;8.276;2022-11-14T15:12:23;8.00;99.90
3788;DHT22;1909;53.046;8.276;2022-11-14T15:14:52;7.90;99.90
3788;DHT22;1909;53.046;8.276;2022-11-14T15:17:20;7.80;99.90
3788;DHT22;1909;53.046;8.276;2022-11-14T15:19:51;7.70;99.90
3788;DHT22;1909;53.046;8.276;2022-11-14T15:22:25;8.00;99.90
3788;DHT22;1909;53.046;8.276;2022-11-14T15:25:16;7.70;99.90
3788;DHT22;1909;53.046;8.276;2022-11-14T15:27:47;7.70;99.90
3788;DHT22;1909;53.046;8.276;2022-11-14T15:30:20;7.60;99.90
3788;DHT22;1909;53.046;8.276;2022-11-14T15:32:48;7.60;99.90
3788;DHT22;1909;53.046;8.276;2022-11-14T15:35:29;7.60;99.90
3788;DHT22;1909;53.046;8.276;2022-11-14T15:38:01;7.50;99.90
3788;DHT22;1909;53.046;8.276;2022-11-14T15:40:29;7.50;99.90
3788;DHT22;1909;53.046;8.276;2022-11-14T15:42:56;7.50;99.90
3788;DHT22;1909;53.046;8.276;2022-11-14T15:45:26;7.40;99.90
3788;DHT22;1909;53.046;8.276;2022-11-14T15:47:57;7.70;99.90
3788;DHT22;1909;53.046;8.276;2022-11-14T15:50:29;7.70;99.90
3788;DHT22;1909;53.046;8.276;2022-11-14T15:52:58;7.60;99.90
3788;DHT22;1909;53.046;8.276;2022-11-14T15:55:26;7.50;99.90
3788;DHT22;1909;53.046;8.276;2022-11-14T15:57:53;7.40;99.90
3788;DHT22;1909;53.046;8.276;2022-11-14T16:00:20;7.60;99.90
3788;DHT22;1909;53.046;8.276;2022-11-14T16:02:48;7.40;99.90
3788;DHT22;1909;53.046;8.276;2022-11-14T16:05:20;7.40;99.90
3788;DHT22;1909;53.046;8.276;2022-11-14T16:07:49;7.30;99.90
3788;DHT22;1909;53.046;8.276;2022-11-14T16:10:18;7.20;99.90
3788;DHT22;1909;53.046;8.276;2022-11-14T16:12:45;7.20;99.90
3788;DHT22;1909;53.046;8.276;2022-11-14T16:15:12;7.40;99.90
3788;DHT22;1909;53.046;8.276;2022-11-14T16:17:41;7.60;99.90
3788;DHT22;1909;53.046;8.276;2022-11-14T16:20:13;7.20;99.90
3788;DHT22;1909;53.046;8.276;2022-11-14T16:22:41;7.20;99.90
3788;DHT22;1909;53.046;8.276;2022-11-14T16:25:14;7.30;99.90
3788;DHT22;1909;53.046;8.276;2022-11-14T16:27:42;8.00;99.90
3788;DHT22;1909;53.046;8.276;2022-11-14T16:30:10;7.10;99.90
3788;DHT22;1909;53.046;8.276;2022-11-14T16:32:37;7.10;99.90
3788;DHT22;1909;53.046;8.276;2022-11-14T16:35:06;7.20;99.90
3788;DHT22;1909;53.046;8.276;2022-11-14T16:37:33;7.40;99.90
3788;DHT22;1909;53.046;8.276;2022-11-14T16:39:59;7.30;99.90
3788;DHT22;1909;53.046;8.276;2022-11-14T16:42:27;7.20;99.90
3788;DHT22;1909;53.046;8.276;2022-11-14T16:44:58;7.20;99.90
3788;DHT22;1909;53.046;8.276;2022-11-14T16:47:25;7.20;99.90
3788;DHT22;1909;53.046;8.276;2022-11-14T16:49:52;7.30;99.90
3788;DHT22;1909;53.046;8.276;2022-11-14T16:52:19;7.20;99.90